sensor_id;sensor_type;location;lat;lon;timestamp;temperature;humidity
32698;DHT22;19087;51.062;3.754;2023-05-10T00:00:08;14.50;99.90
32698;DHT22;19087;51.062;3.754;2023-05-10T00:02:35;14.60;99.90
32698;DHT22;19087;51.062;3.754;2023-05-10T00:05:03;14.70;99.90
32698;DHT22;19087;51.062;3.754;2023-05-10T00:07:29;14.60;99.90
32698;DHT22;19087;51.062;3.754;2023-05-10T00:09:54;14.70;99.90
32698;DHT22;19087;51.062;3.754;2023-05-10T00:12:20;14.60;99.90
32698;DHT22;19087;51.062;3.754;2023-05-10T00:14:46;14.60;99.90
32698;DHT22;19087;51.062;3.754;2023-05-10T00:17:12;14.70;99.90
32698;DHT22;19087;51.062;3.754;2023-05-10T00:19:38;14.60;99.90
32698;DHT22;19087;51.062;3.754;2023-05-10T00:22:04;14.80;99.90
32698;DHT22;19087;51.062;3.754;2023-05-10T00:24:32;14.60;99.90
32698;DHT22;19087;51.062;3.754;2023-05-10T00:27:01;14.80;99.90
32698;DHT22;19087;51.062;3.754;2023-05-10T00:29:30;14.90;99.90
32698;DHT22;19087;51.062;3.754;2023-05-10T00:31:58;14.90;99.90
32698;DHT22;19087;51.062;3.754;2023-05-10T00:34:24;14.90;99.90
32698;DHT22;19087;51.062;3.754;2023-05-10T00:36:50;14.80;99.90
32698;DHT22;19087;51.062;3.754;2023-05-10T00:39:16;14.80;99.90
32698;DHT22;19087;51.062;3.754;2023-05-10T00:41:41;14.90;99.90
32698;DHT22;19087;51.062;3.754;2023-05-10T00:44:07;15.10;99.90
32698;DHT22;19087;51.062;3.754;2023-05-10T00:46:33;15.10;99.90
32698;DHT22;19087;51.062;3.754;2023-05-10T00:49:00;15.10;99.90
32698;DHT22;19087;51.062;3.754;2023-05-10T00:51:26;15.00;99.90
32698;DHT22;19087;51.062;3.754;2023-05-10T00:53:52;15.00;99.90
32698;DHT22;19087;51.062;3.754;2023-05-10T00:56:18;14.70;99.90
32698;DHT22;19087;51.062;3.754;2023-05-10T00:58:45;14.70;99.90
32698;DHT22;19087;51.062;3.754;2023-05-10T01:01:12;14.90;99.90
32698;DHT22;19087;51.062;3.754;2023-05-10T01:03:40;14.70;99.90
32698;DHT22;19087;51.062;3.754;2023-05-10T01:06:06;14.80;99.90
32698;DHT22;19087;51.062;3.754;2023-05-10T01:08:32;15.00;99.90
32698;DHT22;19087;51.062;3.754;2023-05-10T01:10:58;14.90;99.90
32698;DHT22;19087;51.062;3.754;2023-05-10T01:13:38;15.00;99.90
32698;DHT22;19087;51.062;3.754;2023-05-10T01:16:06;15.00;99.90
32698;DHT22;19087;51.062;3.754;2023-05-10T01:18:38;14.90;99.90
32698;DHT22;19087;51.062;3.754;2023-05-10T01:26:19;14.80;99.90
32698;DHT22;19087;51.062;3.754;2023-05-10T01:34:32;14.90;99.90
32698;DHT22;19087;51.062;3.754;2023-05-10T01:37:25;14.80;99.90
32698;DHT22;19087;51.062;3.754;2023-05-10T01:40:00;14.70;99.90
32698;DHT22;19087;51.062;3.754;2023-05-10T01:42:31;14.70;99.90
32698;DHT22;19087;51.062;3.754;2023-05-10T01:45:11;14.80;99.90
32698;DHT22;19087;51.062;3.754;2023-05-10T01:48:07;14.80;99.90
32698;DHT22;19087;51.062;3.754;2023-05-10T01:50:36;14.80;99.90
32698;DHT22;19087;51.062;3.754;2023-05-10T01:53:06;14.80;99.90
32698;DHT22;19087;51.062;3.754;2023-05-10T01:55:36;14.80;99.90
32698;DHT22;19087;51.062;3.754;2023-05-10T01:58:27;14.90;99.90
32698;DHT22;19087;51.062;3.754;2023-05-10T02:00:54;14.70;99.90
32698;DHT22;19087;51.062;3.754;2023-05-10T02:03:23;14.80;99.90
32698;DHT22;19087;51.062;3.754;2023-05-10T02:05:52;14.80;99.90
32698;DHT22;19087;51.062;3.754;2023-05-10T02:08:21;14.70;99.90
32698;DHT22;19087;51.062;3.754;2023-05-10T02:10:50;14.60;99.90
32698;DHT22;19087;51.062;3.754;2023-05-10T02:13:18;14.40;99.90
32698;DHT22;19087;51.062;3.754;2023-05-10T02:15:48;14.30;99.90
32698;DHT22;19087;51.062;3.754;2023-05-10T02:18:14;14.40;99.90
32698;DHT22;19087;51.062;3.754;2023-05-10T02:20:43;14.50;99.90
32698;DHT22;19087;51.062;3.754;2023-05-10T02:23:11;14.60;99.90
32698;DHT22;19087;51.062;3.754;2023-05-10T02:25:37;14.50;99.90
32698;DHT22;19087;51.062;3.754;2023-05-10T02:28:06;14.50;99.90
32698;DHT22;19087;51.062;3.754;2023-05-10T02:30:36;14.60;99.90
32698;DHT22;19087;51.062;3.754;2023-05-10T02:33:06;14.60;99.90
32698;DHT22;19087;51.062;3.754;2023-05-10T02:35:32;14.70;99.90
32698;DHT22;19087;51.062;3.754;2023-05-10T02:38:00;14.60;99.90
32698;DHT22;19087;51.062;3.754;2023-05-10T02:40:27;14.60;99.90
32698;DHT22;19087;51.062;3.754;2023-05-10T02:42:56;14.60;99.90
32698;DHT22;19087;51.062;3.754;2023-05-10T02:45:27;14.60;99.90
32698;DHT22;19087;51.062;3.754;2023-05-10T02:47:54;14.70;99.90
32698;DHT22;19087;51.062;3.754;2023-05-10T02:50:20;14.70;99.90
32698;DHT22;19087;51.062;3.754;2023-05-10T02:52:50;14.60;99.90
32698;DHT22;19087;51.062;3.754;2023-05-10T02:55:22;14.50;99.90
32698;DHT22;19087;51.062;3.754;2023-05-10T02:57:58;14.50;99.90
32698;DHT22;19087;51.062;3.754;2023-05-10T03:00:24;14.60;99.90
32698;DHT22;19087;51.062;3.754;2023-05-10T03:02:50;14.50;99.90
32698;DHT22;19087;51.062;3.754;2023-05-10T03:05:17;14.60;99.90
32698;DHT22;19087;51.062;3.754;2023-05-10T03:07:45;14.60;99.90
32698;DHT22;19087;51.062;3.754;2023-05-10T03:10:11;14.50;99.90
32698;DHT22;19087;51.062;3.754;2023-05-10T03:15:37;14.50;99.90
32698;DHT22;19087;51.062;3.754;2023-05-10T03:18:07;14.50;99.90
32698;DHT22;19087;51.062;3.754;2023-05-10T03:20:50;14.40;99.90
32698;DHT22;19087;51.062;3.754;2023-05-10T03:23:21;14.50;99.90
32698;DHT22;19087;51.062;3.754;2023-05-10T03:25:50;14.40;99.90
32698;DHT22;19087;51.062;3.754;2023-05-10T03:28:18;14.40;99.90
32698;DHT22;19087;51.062;3.754;2023-05-10T03:30:46;14.50;99.90
32698;DHT22;19087;51.062;3.754;2023-05-10T03:33:12;14.50;99.90
32698;DHT22;19087;51.062;3.754;2023-05-10T03:35:39;14.60;99.90
32698;DHT22;19087;51.062;3.754;2023-05-10T03:38:04;14.60;99.90
32698;DHT22;19087;51.062;3.754;2023-05-10T03:40:30;14.60;99.90
32698;DHT22;19087;51.062;3.754;2023-05-10T03:42:58;14.60;99.90
32698;DHT22;19087;51.062;3.754;2023-05-10T03:45:25;14.60;99.90
32698;DHT22;19087;51.062;3.754;2023-05-10T03:47:51;14.60;99.90
32698;DHT22;19087;51.062;3.754;2023-05-10T03:50:17;14.50;99.90
32698;DHT22;19087;51.062;3.754;2023-05-10T03:52:43;14.50;99.90
32698;DHT22;19087;51.062;3.754;2023-05-10T03:55:10;14.50;99.90
32698;DHT22;19087;51.062;3.754;2023-05-10T03:57:36;14.50;99.90
32698;DHT22;19087;51.062;3.754;2023-05-10T04:00:03;14.50;99.90
32698;DHT22;19087;51.062;3.754;2023-05-10T04:02:29;14.50;99.90
32698;DHT22;19087;51.062;3.754;2023-05-10T04:04:55;14.60;99.90
32698;DHT22;19087;51.062;3.754;2023-05-10T04:07:21;14.60;99.90
32698;DHT22;19087;51.062;3.754;2023-05-10T04:09:47;14.70;99.90
32698;DHT22;19087;51.062;3.754;2023-05-10T04:12:13;14.50;99.90
32698;DHT22;19087;51.062;3.754;2023-05-10T04:14:39;14.60;99.90
32698;DHT22;19087;51.062;3.754;2023-05-10T04:17:04;14.60;99.90
32698;DHT22;19087;51.062;3.754;2023-05-10T04:19:31;14.70;99.90
32698;DHT22;19087;51.062;3.754;2023-05-10T04:21:59;14.70;99.90
32698;DHT22;19087;51.062;3.754;2023-05-10T04:24:26;14.80;99.90
32698;DHT22;19087;51.062;3.754;2023-05-10T04:26:52;14.80;99.90
32698;DHT22;19087;51.062;3.754;2023-05-10T04:29:19;14.90;99.90
32698;DHT22;19087;51.062;3.754;2023-05-10T04:31:46;15.00;99.90
32698;DHT22;19087;51.062;3.754;2023-05-10T04:34:12;15.00;99.90
32698;DHT22;19087;51.062;3.754;2023-05-10T04:36:37;15.10;99.90
32698;DHT22;19087;51.062;3.754;2023-05-10T04:39:04;15.20;99.90
32698;DHT22;19087;51.062;3.754;2023-05-10T04:41:31;15.20;99.90
32698;DHT22;19087;51.062;3.754;2023-05-10T04:43:56;15.20;99.90
32698;DHT22;19087;51.062;3.754;2023-05-10T04:46:23;15.10;99.90
32698;DHT22;19087;51.062;3.754;2023-05-10T04:48:55;15.20;99.90
32698;DHT22;19087;51.062;3.754;2023-05-10T04:51:21;15.20;99.90
32698;DHT22;19087;51.062;3.754;2023-05-10T04:53:47;15.20;99.90
32698;DHT22;19087;51.062;3.754;2023-05-10T04:56:14;15.30;99.90
32698;DHT22;19087;51.062;3.754;2023-05-10T04:58:39;15.30;99.90
32698;DHT22;19087;51.062;3.754;2023-05-10T05:01:07;15.20;99.90
32698;DHT22;19087;51.062;3.754;2023-05-10T05:03:36;15.20;99.90
32698;DHT22;19087;51.062;3.754;2023-05-10T05:06:02;15.20;99.90
32698;DHT22;19087;51.062;3.754;2023-05-10T05:08:28;15.20;99.90
32698;DHT22;19087;51.062;3.754;2023-05-10T05:10:54;15.20;99.90
32698;DHT22;19087;51.062;3.754;2023-05-10T05:13:20;15.20;99.90
32698;DHT22;19087;51.062;3.754;2023-05-10T05:15:46;15.20;99.90
32698;DHT22;19087;51.062;3.754;2023-05-10T05:18:11;15.20;99.90
32698;DHT22;19087;51.062;3.754;2023-05-10T05:20:37;15.20;99.90
32698;DHT22;19087;51.062;3.754;2023-05-10T05:23:04;15.30;99.90
32698;DHT22;19087;51.062;3.754;2023-05-10T05:25:30;15.30;99.90
32698;DHT22;19087;51.062;3.754;2023-05-10T05:27:56;15.30;99.90
32698;DHT22;19087;51.062;3.754;2023-05-10T05:30:22;15.30;99.90
32698;DHT22;19087;51.062;3.754;2023-05-10T05:32:48;15.40;99.90
32698;DHT22;19087;51.062;3.754;2023-05-10T05:35:13;15.30;99.90
32698;DHT22;19087;51.062;3.754;2023-05-10T05:37:39;15.20;99.90
32698;DHT22;19087;51.062;3.754;2023-05-10T05:40:06;15.30;99.90
32698;DHT22;19087;51.062;3.754;2023-05-10T05:42:32;15.30;99.90
32698;DHT22;19087;51.062;3.754;2023-05-10T05:44:58;15.40;99.90
32698;DHT22;19087;51.062;3.754;2023-05-10T05:47:24;15.20;99.90
32698;DHT22;19087;51.062;3.754;2023-05-10T05:49:50;15.30;99.90
32698;DHT22;19087;51.062;3.754;2023-05-10T05:52:16;15.20;99.90
32698;DHT22;19087;51.062;3.754;2023-05-10T05:54:43;15.40;99.90
32698;DHT22;19087;51.062;3.754;2023-05-10T05:57:09;15.50;99.90
32698;DHT22;19087;51.062;3.754;2023-05-10T05:59:35;15.70;99.90
32698;DHT22;19087;51.062;3.754;2023-05-10T06:02:01;15.70;99.90
32698;DHT22;19087;51.062;3.754;2023-05-10T06:04:30;15.80;99.90
32698;DHT22;19087;51.062;3.754;2023-05-10T06:06:57;16.00;99.90
32698;DHT22;19087;51.062;3.754;2023-05-10T06:09:24;16.10;99.90
32698;DHT22;19087;51.062;3.754;2023-05-10T06:11:52;16.30;99.90
32698;DHT22;19087;51.062;3.754;2023-05-10T06:14:20;16.30;99.90
32698;DHT22;19087;51.062;3.754;2023-05-10T06:16:46;16.50;99.90
32698;DHT22;19087;51.062;3.754;2023-05-10T06:19:13;16.60;99.90
32698;DHT22;19087;51.062;3.754;2023-05-10T06:21:39;16.60;99.90
32698;DHT22;19087;51.062;3.754;2023-05-10T06:24:06;16.70;99.90
32698;DHT22;19087;51.062;3.754;2023-05-10T06:26:32;16.60;99.90
32698;DHT22;19087;51.062;3.754;2023-05-10T06:28:59;16.50;99.90
32698;DHT22;19087;51.062;3.754;2023-05-10T06:31:24;16.40;99.90
32698;DHT22;19087;51.062;3.754;2023-05-10T06:33:50;16.40;99.90
32698;DHT22;19087;51.062;3.754;2023-05-10T06:36:18;16.30;99.90
32698;DHT22;19087;51.062;3.754;2023-05-10T06:38:44;16.40;99.90
32698;DHT22;19087;51.062;3.754;2023-05-10T06:41:10;16.60;99.90
32698;DHT22;19087;51.062;3.754;2023-05-10T06:43:36;16.80;99.90
32698;DHT22;19087;51.062;3.754;2023-05-10T06:46:05;16.90;99.90
32698;DHT22;19087;51.062;3.754;2023-05-10T06:48:32;16.90;99.90
32698;DHT22;19087;51.062;3.754;2023-05-10T06:50:58;17.00;99.90
32698;DHT22;19087;51.062;3.754;2023-05-10T06:53:25;16.90;99.90
32698;DHT22;19087;51.062;3.754;2023-05-10T06:55:50;17.40;99.90
32698;DHT22;19087;51.062;3.754;2023-05-10T06:58:16;18.20;99.90
32698;DHT22;19087;51.062;3.754;2023-05-10T07:00:42;18.70;99.90
32698;DHT22;19087;51.062;3.754;2023-05-10T07:03:12;19.10;99.90
32698;DHT22;19087;51.062;3.754;2023-05-10T07:05:38;19.60;99.90
32698;DHT22;19087;51.062;3.754;2023-05-10T07:08:04;19.70;99.90
32698;DHT22;19087;51.062;3.754;2023-05-10T07:10:30;20.10;99.90
32698;DHT22;19087;51.062;3.754;2023-05-10T07:12:56;20.10;99.90
32698;DHT22;19087;51.062;3.754;2023-05-10T07:15:22;20.00;99.90
32698;DHT22;19087;51.062;3.754;2023-05-10T07:17:48;20.00;99.90
32698;DHT22;19087;51.062;3.754;2023-05-10T07:20:14;19.90;99.90
32698;DHT22;19087;51.062;3.754;2023-05-10T07:22:40;19.70;99.90
32698;DHT22;19087;51.062;3.754;2023-05-10T07:25:06;19.40;99.90
32698;DHT22;19087;51.062;3.754;2023-05-10T07:27:33;19.00;99.90
32698;DHT22;19087;51.062;3.754;2023-05-10T07:29:59;18.70;99.90
32698;DHT22;19087;51.062;3.754;2023-05-10T07:32:26;18.20;99.90
32698;DHT22;19087;51.062;3.754;2023-05-10T07:34:51;17.90;99.90
32698;DHT22;19087;51.062;3.754;2023-05-10T07:37:17;17.90;99.90
32698;DHT22;19087;51.062;3.754;2023-05-10T07:39:43;17.60;99.90
32698;DHT22;19087;51.062;3.754;2023-05-10T07:42:10;17.10;99.90
32698;DHT22;19087;51.062;3.754;2023-05-10T07:44:35;17.20;99.90
32698;DHT22;19087;51.062;3.754;2023-05-10T07:47:02;17.30;99.90
32698;DHT22;19087;51.062;3.754;2023-05-10T07:49:28;17.20;99.90
32698;DHT22;19087;51.062;3.754;2023-05-10T07:51:54;17.20;99.90
32698;DHT22;19087;51.062;3.754;2023-05-10T07:54:20;16.70;99.90
32698;DHT22;19087;51.062;3.754;2023-05-10T07:56:49;16.80;99.90
32698;DHT22;19087;51.062;3.754;2023-05-10T07:59:16;17.10;99.90
32698;DHT22;19087;51.062;3.754;2023-05-10T08:01:42;16.90;99.90
32698;DHT22;19087;51.062;3.754;2023-05-10T08:04:08;17.10;99.90
32698;DHT22;19087;51.062;3.754;2023-05-10T08:06:34;16.70;99.90
32698;DHT22;19087;51.062;3.754;2023-05-10T08:09:01;16.60;99.90
32698;DHT22;19087;51.062;3.754;2023-05-10T08:11:27;16.60;99.90
32698;DHT22;19087;51.062;3.754;2023-05-10T08:13:53;16.60;99.90
32698;DHT22;19087;51.062;3.754;2023-05-10T08:16:19;16.70;99.90
32698;DHT22;19087;51.062;3.754;2023-05-10T08:18:46;16.80;99.90
32698;DHT22;19087;51.062;3.754;2023-05-10T08:21:13;16.90;99.90
32698;DHT22;19087;51.062;3.754;2023-05-10T08:23:39;17.10;99.90
32698;DHT22;19087;51.062;3.754;2023-05-10T08:26:06;17.30;99.90
32698;DHT22;19087;51.062;3.754;2023-05-10T08:28:32;17.40;99.90
32698;DHT22;19087;51.062;3.754;2023-05-10T08:30:58;17.00;99.90
32698;DHT22;19087;51.062;3.754;2023-05-10T08:33:23;16.50;99.90
32698;DHT22;19087;51.062;3.754;2023-05-10T08:35:49;16.10;99.90
32698;DHT22;19087;51.062;3.754;2023-05-10T08:38:16;16.10;99.90
32698;DHT22;19087;51.062;3.754;2023-05-10T08:40:43;16.30;99.90
32698;DHT22;19087;51.062;3.754;2023-05-10T08:43:11;16.20;99.90
32698;DHT22;19087;51.062;3.754;2023-05-10T08:45:41;16.20;99.90
32698;DHT22;19087;51.062;3.754;2023-05-10T08:48:10;16.00;99.90
32698;DHT22;19087;51.062;3.754;2023-05-10T08:50:38;16.00;99.90
32698;DHT22;19087;51.062;3.754;2023-05-10T08:53:10;16.30;99.90
32698;DHT22;19087;51.062;3.754;2023-05-10T08:55:37;16.00;99.90
32698;DHT22;19087;51.062;3.754;2023-05-10T08:58:06;15.90;99.90
32698;DHT22;19087;51.062;3.754;2023-05-10T09:00:34;15.80;99.90
32698;DHT22;19087;51.062;3.754;2023-05-10T09:03:02;16.00;99.90
32698;DHT22;19087;51.062;3.754;2023-05-10T09:05:28;16.00;99.90
32698;DHT22;19087;51.062;3.754;2023-05-10T09:07:54;15.70;99.90
32698;DHT22;19087;51.062;3.754;2023-05-10T09:10:20;15.70;99.90
32698;DHT22;19087;51.062;3.754;2023-05-10T09:12:47;15.50;99.90
32698;DHT22;19087;51.062;3.754;2023-05-10T09:15:17;15.30;99.90
32698;DHT22;19087;51.062;3.754;2023-05-10T09:17:45;15.10;99.90
32698;DHT22;19087;51.062;3.754;2023-05-10T09:20:11;15.00;99.90
32698;DHT22;19087;51.062;3.754;2023-05-10T09:22:37;15.00;99.90
32698;DHT22;19087;51.062;3.754;2023-05-10T09:27:34;15.10;99.90
32698;DHT22;19087;51.062;3.754;2023-05-10T09:30:01;15.10;99.90
32698;DHT22;19087;51.062;3.754;2023-05-10T09:32:41;15.10;99.90
32698;DHT22;19087;51.062;3.754;2023-05-10T09:37:33;16.20;99.90
32698;DHT22;19087;51.062;3.754;2023-05-10T09:39:59;16.60;99.90
32698;DHT22;19087;51.062;3.754;2023-05-10T09:42:25;17.20;99.90
32698;DHT22;19087;51.062;3.754;2023-05-10T09:44:51;17.80;99.90
32698;DHT22;19087;51.062;3.754;2023-05-10T09:47:18;18.30;99.90
32698;DHT22;19087;51.062;3.754;2023-05-10T09:49:50;18.40;99.90
32698;DHT22;19087;51.062;3.754;2023-05-10T09:52:23;18.30;99.90
32698;DHT22;19087;51.062;3.754;2023-05-10T09:54:55;18.60;99.90
32698;DHT22;19087;51.062;3.754;2023-05-10T09:57:22;19.60;99.90
32698;DHT22;19087;51.062;3.754;2023-05-10T09:59:49;20.30;99.90
32698;DHT22;19087;51.062;3.754;2023-05-10T10:02:16;20.90;99.90
32698;DHT22;19087;51.062;3.754;2023-05-10T10:04:43;21.30;99.90
32698;DHT22;19087;51.062;3.754;2023-05-10T10:07:09;21.40;99.90
32698;DHT22;19087;51.062;3.754;2023-05-10T10:09:35;21.00;99.90
32698;DHT22;19087;51.062;3.754;2023-05-10T10:12:02;21.40;99.90
32698;DHT22;19087;51.062;3.754;2023-05-10T10:14:29;21.60;99.90
32698;DHT22;19087;51.062;3.754;2023-05-10T10:16:55;21.50;99.90
32698;DHT22;19087;51.062;3.754;2023-05-10T10:19:22;21.20;99.90
32698;DHT22;19087;51.062;3.754;2023-05-10T10:21:49;21.30;99.90
32698;DHT22;19087;51.062;3.754;2023-05-10T10:24:18;20.40;99.90
32698;DHT22;19087;51.062;3.754;2023-05-10T10:26:45;19.70;99.90
32698;DHT22;19087;51.062;3.754;2023-05-10T10:29:35;20.10;99.90
32698;DHT22;19087;51.062;3.754;2023-05-10T10:32:09;20.00;99.90
32698;DHT22;19087;51.062;3.754;2023-05-10T10:34:38;20.50;99.90
32698;DHT22;19087;51.062;3.754;2023-05-10T10:37:06;21.30;99.90
32698;DHT22;19087;51.062;3.754;2023-05-10T10:39:34;21.90;99.90
32698;DHT22;19087;51.062;3.754;2023-05-10T10:42:14;22.50;99.90
32698;DHT22;19087;51.062;3.754;2023-05-10T10:44:44;22.70;99.90
32698;DHT22;19087;51.062;3.754;2023-05-10T10:50:02;22.70;99.90
32698;DHT22;19087;51.062;3.754;2023-05-10T10:52:39;21.80;99.90
32698;DHT22;19087;51.062;3.754;2023-05-10T10:55:18;21.70;99.90
32698;DHT22;19087;51.062;3.754;2023-05-10T10:57:54;21.30;99.90
32698;DHT22;19087;51.062;3.754;2023-05-10T11:00:34;21.00;99.90
32698;DHT22;19087;51.062;3.754;2023-05-10T11:03:05;20.50;99.90
32698;DHT22;19087;51.062;3.754;2023-05-10T11:05:44;20.60;99.90
32698;DHT22;19087;51.062;3.754;2023-05-10T11:08:16;20.30;99.90
32698;DHT22;19087;51.062;3.754;2023-05-10T11:16:21;17.90;99.90
32698;DHT22;19087;51.062;3.754;2023-05-10T11:18:57;17.90;99.90
32698;DHT22;19087;51.062;3.754;2023-05-10T11:21:24;18.10;99.90
32698;DHT22;19087;51.062;3.754;2023-05-10T11:23:54;18.30;99.90
32698;DHT22;19087;51.062;3.754;2023-05-10T11:26:25;18.40;99.90
32698;DHT22;19087;51.062;3.754;2023-05-10T11:28:53;18.00;99.90
32698;DHT22;19087;51.062;3.754;2023-05-10T11:31:24;17.90;99.90
32698;DHT22;19087;51.062;3.754;2023-05-10T11:33:58;18.10;99.90
32698;DHT22;19087;51.062;3.754;2023-05-10T11:36:34;18.30;99.90
32698;DHT22;19087;51.062;3.754;2023-05-10T11:39:04;18.50;99.90
32698;DHT22;19087;51.062;3.754;2023-05-10T11:41:31;18.50;99.90
32698;DHT22;19087;51.062;3.754;2023-05-10T11:44:02;18.50;99.90
32698;DHT22;19087;51.062;3.754;2023-05-10T11:46:28;18.60;99.90
32698;DHT22;19087;51.062;3.754;2023-05-10T11:49:00;18.50;99.90
32698;DHT22;19087;51.062;3.754;2023-05-10T11:51:27;18.40;99.90
32698;DHT22;19087;51.062;3.754;2023-05-10T11:53:59;18.20;99.90
32698;DHT22;19087;51.062;3.754;2023-05-10T11:56:25;18.40;99.90
32698;DHT22;19087;51.062;3.754;2023-05-10T11:58:57;18.80;99.90
32698;DHT22;19087;51.062;3.754;2023-05-10T12:01:24;19.20;99.90
32698;DHT22;19087;51.062;3.754;2023-05-10T12:03:52;19.60;99.90
32698;DHT22;19087;51.062;3.754;2023-05-10T12:06:20;19.80;99.90
32698;DHT22;19087;51.062;3.754;2023-05-10T12:08:47;19.80;99.90
32698;DHT22;19087;51.062;3.754;2023-05-10T12:11:19;20.00;99.90
32698;DHT22;19087;51.062;3.754;2023-05-10T12:13:47;20.10;99.90
32698;DHT22;19087;51.062;3.754;2023-05-10T12:16:25;20.20;99.90
32698;DHT22;19087;51.062;3.754;2023-05-10T12:18:59;20.50;99.90
32698;DHT22;19087;51.062;3.754;2023-05-10T12:21:26;19.70;99.90
32698;DHT22;19087;51.062;3.754;2023-05-10T12:23:54;19.10;99.90
32698;DHT22;19087;51.062;3.754;2023-05-10T12:26:24;19.30;99.90
32698;DHT22;19087;51.062;3.754;2023-05-10T12:28:53;20.00;99.90
32698;DHT22;19087;51.062;3.754;2023-05-10T12:31:19;20.10;99.90
32698;DHT22;19087;51.062;3.754;2023-05-10T12:33:46;19.80;99.90
32698;DHT22;19087;51.062;3.754;2023-05-10T12:36:15;20.10;99.90
32698;DHT22;19087;51.062;3.754;2023-05-10T12:38:45;20.10;99.90
32698;DHT22;19087;51.062;3.754;2023-05-10T12:41:17;20.50;99.90
32698;DHT22;19087;51.062;3.754;2023-05-10T12:43:43;20.70;99.90
32698;DHT22;19087;51.062;3.754;2023-05-10T12:46:17;20.80;99.90
32698;DHT22;19087;51.062;3.754;2023-05-10T12:48:44;20.90;99.90
32698;DHT22;19087;51.062;3.754;2023-05-10T12:51:20;20.90;99.90
32698;DHT22;19087;51.062;3.754;2023-05-10T12:53:47;20.80;99.90
32698;DHT22;19087;51.062;3.754;2023-05-10T12:56:13;20.90;99.90
32698;DHT22;19087;51.062;3.754;2023-05-10T12:58:39;20.70;99.90
32698;DHT22;19087;51.062;3.754;2023-05-10T13:01:05;20.60;99.90
32698;DHT22;19087;51.062;3.754;2023-05-10T13:03:33;20.50;99.90
32698;DHT22;19087;51.062;3.754;2023-05-10T13:05:59;20.40;99.90
32698;DHT22;19087;51.062;3.754;2023-05-10T13:08:25;20.30;99.90
32698;DHT22;19087;51.062;3.754;2023-05-10T13:10:54;20.10;99.90
32698;DHT22;19087;51.062;3.754;2023-05-10T13:13:20;19.80;99.90
32698;DHT22;19087;51.062;3.754;2023-05-10T13:15:46;19.70;99.90
32698;DHT22;19087;51.062;3.754;2023-05-10T13:18:14;19.60;99.90
32698;DHT22;19087;51.062;3.754;2023-05-10T13:20:42;19.70;99.90
32698;DHT22;19087;51.062;3.754;2023-05-10T13:23:10;19.50;99.90
32698;DHT22;19087;51.062;3.754;2023-05-10T13:25:37;19.20;99.90
32698;DHT22;19087;51.062;3.754;2023-05-10T13:28:06;19.20;99.90
32698;DHT22;19087;51.062;3.754;2023-05-10T13:30:33;19.00;99.90
32698;DHT22;19087;51.062;3.754;2023-05-10T13:33:01;18.70;99.90
32698;DHT22;19087;51.062;3.754;2023-05-10T13:35:30;18.00;99.90
32698;DHT22;19087;51.062;3.754;2023-05-10T13:37:56;17.60;99.90
32698;DHT22;19087;51.062;3.754;2023-05-10T13:40:26;17.70;99.90
32698;DHT22;19087;51.062;3.754;2023-05-10T13:42:54;18.00;99.90
32698;DHT22;19087;51.062;3.754;2023-05-10T13:45:21;18.00;99.90
32698;DHT22;19087;51.062;3.754;2023-05-10T13:47:47;17.50;99.90
32698;DHT22;19087;51.062;3.754;2023-05-10T13:50:19;17.10;99.90
32698;DHT22;19087;51.062;3.754;2023-05-10T13:53:05;17.20;99.90
32698;DHT22;19087;51.062;3.754;2023-05-10T13:55:34;17.20;99.90
32698;DHT22;19087;51.062;3.754;2023-05-10T13:58:06;17.30;99.90
32698;DHT22;19087;51.062;3.754;2023-05-10T14:00:58;17.60;99.90
32698;DHT22;19087;51.062;3.754;2023-05-10T14:03:25;18.00;99.90
32698;DHT22;19087;51.062;3.754;2023-05-10T14:05:52;18.10;99.90
32698;DHT22;19087;51.062;3.754;2023-05-10T14:08:20;17.70;99.90
32698;DHT22;19087;51.062;3.754;2023-05-10T14:10:46;17.40;99.90
32698;DHT22;19087;51.062;3.754;2023-05-10T14:13:14;17.60;99.90
32698;DHT22;19087;51.062;3.754;2023-05-10T14:15:40;17.70;99.90
32698;DHT22;19087;51.062;3.754;2023-05-10T14:18:06;17.90;99.90
32698;DHT22;19087;51.062;3.754;2023-05-10T14:20:35;18.10;99.90
32698;DHT22;19087;51.062;3.754;2023-05-10T14:23:01;18.20;99.90
32698;DHT22;19087;51.062;3.754;2023-05-10T14:25:34;18.10;99.90
32698;DHT22;19087;51.062;3.754;2023-05-10T14:28:01;18.10;99.90
32698;DHT22;19087;51.062;3.754;2023-05-10T14:30:33;18.20;99.90
32698;DHT22;19087;51.062;3.754;2023-05-10T14:33:03;18.30;99.90
32698;DHT22;19087;51.062;3.754;2023-05-10T14:35:30;18.40;99.90
32698;DHT22;19087;51.062;3.754;2023-05-10T14:37:57;18.50;99.90
32698;DHT22;19087;51.062;3.754;2023-05-10T14:40:29;18.50;99.90
32698;DHT22;19087;51.062;3.754;2023-05-10T14:42:56;18.40;99.90
32698;DHT22;19087;51.062;3.754;2023-05-10T14:45:22;18.30;99.90
32698;DHT22;19087;51.062;3.754;2023-05-10T14:47:49;18.30;99.90
32698;DHT22;19087;51.062;3.754;2023-05-10T14:50:16;18.40;99.90
32698;DHT22;19087;51.062;3.754;2023-05-10T14:52:43;18.60;99.90
32698;DHT22;19087;51.062;3.754;2023-05-10T14:55:10;18.70;99.90
32698;DHT22;19087;51.062;3.754;2023-05-10T14:57:36;18.80;99.90
32698;DHT22;19087;51.062;3.754;2023-05-10T15:00:03;18.80;99.90
32698;DHT22;19087;51.062;3.754;2023-05-10T15:02:32;18.70;99.90
32698;DHT22;19087;51.062;3.754;2023-05-10T15:04:57;18.80;99.90
32698;DHT22;19087;51.062;3.754;2023-05-10T15:07:23;18.90;99.90
32698;DHT22;19087;51.062;3.754;2023-05-10T15:09:51;18.80;99.90
32698;DHT22;19087;51.062;3.754;2023-05-10T15:12:20;18.90;99.90
32698;DHT22;19087;51.062;3.754;2023-05-10T15:14:48;19.00;99.90
32698;DHT22;19087;51.062;3.754;2023-05-10T15:17:14;19.10;99.90
32698;DHT22;19087;51.062;3.754;2023-05-10T15:19:41;19.30;99.90
32698;DHT22;19087;51.062;3.754;2023-05-10T15:22:07;19.40;99.90
32698;DHT22;19087;51.062;3.754;2023-05-10T15:24:42;19.30;99.90
32698;DHT22;19087;51.062;3.754;2023-05-10T15:27:13;19.40;99.90
32698;DHT22;19087;51.062;3.754;2023-05-10T15:29:41;19.40;99.90
32698;DHT22;19087;51.062;3.754;2023-05-10T15:32:07;19.50;99.90
32698;DHT22;19087;51.062;3.754;2023-05-10T15:34:33;19.50;99.90
32698;DHT22;19087;51.062;3.754;2023-05-10T15:37:00;19.50;99.90
32698;DHT22;19087;51.062;3.754;2023-05-10T15:39:25;19.70;99.90
32698;DHT22;19087;51.062;3.754;2023-05-10T15:41:55;19.70;99.90
32698;DHT22;19087;51.062;3.754;2023-05-10T15:44:21;19.80;99.90
32698;DHT22;19087;51.062;3.754;2023-05-10T15:46:48;19.70;99.90
32698;DHT22;19087;51.062;3.754;2023-05-10T15:49:16;19.90;99.90
32698;DHT22;19087;51.062;3.754;2023-05-10T15:51:42;19.70;99.90
32698;DHT22;19087;51.062;3.754;2023-05-10T15:54:08;19.60;99.90
32698;DHT22;19087;51.062;3.754;2023-05-10T15:56:37;19.80;99.90
32698;DHT22;19087;51.062;3.754;2023-05-10T15:59:06;19.90;99.90
32698;DHT22;19087;51.062;3.754;2023-05-10T16:01:33;20.00;99.90